createdAt,value
2019-02-06T00:01:10.261Z,75.00
2019-02-06T00:03:38.488Z,75.02
2019-02-06T00:06:07.134Z,74.98
2019-02-06T00:08:35.329Z,74.80
2019-02-06T00:11:03.535Z,74.88
2019-02-06T00:13:32.079Z,74.84
2019-02-06T00:16:00.295Z,74.69
2019-02-06T00:18:28.471Z,74.69
2019-02-06T00:20:56.729Z,74.58
2019-02-06T00:23:24.921Z,74.54
2019-02-06T00:25:53.140Z,74.61
2019-02-06T00:28:21.329Z,74.60
2019-02-06T00:30:49.892Z,74.65
2019-02-06T00:33:18.089Z,74.86
2019-02-06T00:35:46.277Z,74.87
2019-02-06T00:38:14.461Z,74.87
2019-02-06T00:40:42.646Z,74.78
2019-02-06T00:43:10.833Z,74.82
2019-02-06T00:45:39.013Z,74.96
2019-02-06T00:48:07.206Z,74.92
2019-02-06T00:50:35.395Z,74.73
2019-02-06T00:53:03.697Z,74.91
2019-02-06T00:55:31.882Z,74.87
2019-02-06T00:58:00.134Z,74.77
2019-02-06T01:00:28.318Z,74.65
2019-02-06T01:02:56.887Z,74.86
2019-02-06T01:05:25.074Z,74.89
2019-02-06T01:07:53.263Z,74.87
2019-02-06T01:10:21.530Z,74.98
2019-02-06T01:12:49.729Z,74.92
2019-02-06T01:15:17.913Z,74.97
2019-02-06T01:17:46.118Z,74.89
2019-02-06T01:20:17.200Z,75.01
2019-02-06T01:22:45.390Z,75.08
2019-02-06T01:25:17.705Z,74.99
2019-02-06T01:27:45.885Z,74.90
2019-02-06T01:30:17.482Z,74.88
2019-02-06T01:32:45.675Z,74.83
2019-02-06T01:35:14.609Z,75.04
2019-02-06T01:37:42.830Z,75.15
2019-02-06T01:40:14.022Z,75.10
2019-02-06T01:42:42.300Z,74.98
2019-02-06T01:45:13.300Z,75.13
2019-02-06T01:47:41.497Z,75.08
2019-02-06T01:50:12.180Z,74.98
2019-02-06T01:52:40.436Z,74.75
2019-02-06T01:55:13.113Z,74.70
2019-02-06T01:57:41.293Z,74.69
2019-02-06T02:00:18.169Z,74.83
2019-02-06T02:02:46.350Z,74.91
2019-02-06T02:05:16.159Z,74.79
2019-02-06T02:07:44.343Z,74.59
2019-02-06T02:10:12.534Z,74.36
2019-02-06T02:12:40.722Z,74.41
2019-02-06T02:15:12.005Z,74.51
2019-02-06T02:17:40.199Z,74.48
2019-02-06T02:20:17.551Z,74.47
2019-02-06T02:22:45.737Z,74.55
2019-02-06T02:25:13.926Z,74.57
2019-02-06T02:27:42.196Z,74.71
2019-02-06T02:30:13.479Z,74.46
2019-02-06T02:32:41.663Z,74.44
2019-02-06T02:35:10.026Z,74.47
2019-02-06T02:37:38.210Z,74.45
2019-02-06T02:40:09.134Z,74.44
2019-02-06T02:42:37.396Z,74.47
2019-02-06T02:45:11.693Z,74.45
2019-02-06T02:47:39.872Z,74.38
2019-02-06T02:50:10.109Z,74.41
2019-02-06T02:52:38.282Z,74.36
2019-02-06T02:55:08.715Z,74.27
2019-02-06T02:57:36.902Z,74.33
2019-02-06T03:00:18.017Z,74.12
2019-02-06T03:03:04.125Z,74.39
2019-02-06T03:05:33.877Z,74.64
2019-02-06T03:08:02.061Z,74.69
2019-02-06T03:10:30.256Z,74.52
2019-02-06T03:12:58.437Z,74.45
2019-02-06T03:15:26.637Z,74.59
2019-02-06T03:17:54.827Z,74.40
2019-02-06T03:20:23.025Z,74.34
2019-02-06T03:22:51.207Z,74.39
2019-02-06T03:25:19.400Z,74.36
2019-02-06T03:27:47.595Z,74.37
2019-02-06T03:30:17.649Z,74.46
2019-02-06T03:32:45.839Z,74.35
2019-02-06T03:35:14.389Z,74.39
2019-02-06T03:37:42.587Z,74.52
2019-02-06T03:40:16.325Z,74.57
2019-02-06T03:42:44.522Z,74.29
2019-02-06T03:45:13.444Z,74.26
2019-02-06T03:47:41.632Z,74.36
2019-02-06T03:50:15.380Z,74.47
2019-02-06T03:52:43.583Z,74.43
2019-02-06T03:55:12.452Z,74.54
2019-02-06T03:57:40.657Z,74.62
2019-02-06T04:00:14.645Z,74.50
2019-02-06T04:02:42.830Z,74.44
2019-02-06T04:05:11.845Z,74.52
2019-02-06T04:07:40.102Z,74.33
2019-02-06T04:10:13.775Z,74.22
2019-02-06T04:12:41.958Z,74.39
2019-02-06T04:15:10.388Z,74.47
2019-02-06T04:17:38.593Z,74.62
2019-02-06T04:20:09.781Z,74.40
2019-02-06T04:22:38.012Z,74.43
2019-02-06T04:25:07.633Z,74.47
2019-02-06T04:27:35.802Z,74.61
2019-02-06T04:30:05.457Z,74.47
2019-02-06T04:32:33.661Z,74.45
2019-02-06T04:35:01.852Z,74.38
2019-02-06T04:37:30.036Z,74.21
2019-02-06T04:39:58.218Z,74.24
2019-02-06T04:42:26.424Z,74.08
2019-02-06T04:44:54.600Z,74.04
2019-02-06T04:47:23.178Z,74.22
2019-02-06T04:49:51.422Z,74.14
2019-02-06T04:52:19.649Z,74.46
2019-02-06T04:54:47.851Z,74.68
2019-02-06T04:57:16.042Z,74.83
2019-02-06T04:59:44.237Z,74.81
2019-02-06T05:02:12.416Z,74.50
2019-02-06T05:04:40.879Z,74.36
2019-02-06T05:07:18.767Z,74.59
2019-02-06T05:09:38.977Z,74.79
2019-02-06T05:12:09.585Z,74.94
2019-02-06T05:14:37.124Z,74.94
2019-02-06T05:17:05.323Z,74.66
2019-02-06T05:19:33.506Z,74.72
2019-02-06T05:22:01.971Z,74.65
2019-02-06T05:24:30.166Z,74.68
2019-02-06T05:26:58.339Z,74.68
2019-02-06T05:29:26.527Z,74.72
2019-02-06T05:31:54.730Z,74.61
2019-02-06T05:34:22.927Z,74.35
2019-02-06T05:36:51.195Z,74.41
2019-02-06T05:39:19.382Z,74.45
2019-02-06T05:41:47.568Z,74.59
2019-02-06T05:44:15.776Z,74.58
2019-02-06T05:46:44.020Z,74.63
2019-02-06T05:49:12.215Z,74.74
2019-02-06T05:51:40.391Z,74.77
2019-02-06T05:54:11.154Z,74.73
2019-02-06T05:56:38.497Z,74.86
2019-02-06T05:59:06.681Z,74.83
2019-02-06T06:01:34.884Z,74.75
2019-02-06T06:04:03.065Z,74.84
2019-02-06T06:06:31.256Z,74.78
2019-02-06T06:08:59.443Z,74.78
2019-02-06T06:11:27.638Z,74.76
2019-02-06T06:13:56.092Z,74.82
2019-02-06T06:16:24.279Z,74.87
2019-02-06T06:18:52.467Z,74.87
2019-02-06T06:21:20.651Z,74.89
2019-02-06T06:23:48.847Z,74.92
2019-02-06T06:26:17.055Z,74.87
2019-02-06T06:28:45.245Z,74.95
2019-02-06T06:31:13.803Z,74.85
2019-02-06T06:33:41.987Z,74.71
2019-02-06T06:36:10.179Z,74.92
2019-02-06T06:38:38.389Z,74.83
2019-02-06T06:41:06.609Z,74.80
2019-02-06T06:43:34.800Z,74.75
2019-02-06T06:46:03.047Z,74.74
2019-02-06T06:48:33.411Z,74.73
2019-02-06T06:51:01.609Z,74.82
2019-02-06T06:53:29.804Z,74.93
2019-02-06T06:55:57.983Z,75.17
2019-02-06T06:58:26.162Z,75.10
2019-02-06T07:00:55.337Z,75.08
2019-02-06T07:03:23.532Z,75.10
2019-02-06T07:05:51.729Z,75.16
2019-02-06T07:08:19.915Z,75.32
2019-02-06T07:10:48.106Z,75.47
2019-02-06T07:13:16.295Z,75.58
2019-02-06T07:15:44.477Z,75.64
2019-02-06T07:18:14.570Z,75.68
2019-02-06T07:20:43.046Z,75.65
2019-02-06T07:23:11.225Z,75.59
2019-02-06T07:25:39.406Z,75.85
2019-02-06T07:28:07.597Z,75.98
2019-02-06T07:30:36.221Z,75.75
2019-02-06T07:33:04.416Z,75.69
2019-02-06T07:35:32.603Z,75.66
2019-02-06T07:38:01.069Z,75.74
2019-02-06T07:40:29.277Z,75.83
2019-02-06T07:42:57.466Z,75.79
2019-02-06T07:45:25.649Z,75.83
2019-02-06T07:47:53.837Z,75.87
2019-02-06T07:50:30.357Z,75.74
2019-02-06T07:52:58.828Z,75.68
2019-02-06T07:55:27.011Z,75.60
2019-02-06T07:57:55.202Z,75.56
2019-02-06T08:00:23.386Z,75.61
2019-02-06T08:02:52.013Z,75.67
2019-02-06T08:05:21.314Z,75.61
2019-02-06T08:07:49.636Z,75.50
2019-02-06T08:10:20.166Z,75.62
2019-02-06T08:12:48.350Z,75.64
2019-02-06T08:15:17.772Z,75.44
2019-02-06T08:17:45.964Z,75.22
2019-02-06T08:20:16.486Z,75.21
2019-02-06T08:22:44.680Z,75.11
2019-02-06T08:25:15.639Z,75.12
2019-02-06T08:27:43.828Z,75.04
2019-02-06T08:30:20.568Z,74.78
2019-02-06T08:32:48.769Z,74.70
2019-02-06T08:35:16.950Z,74.60
2019-02-06T08:37:45.241Z,74.69
2019-02-06T08:40:16.160Z,74.71
2019-02-06T08:42:44.321Z,74.57
2019-02-06T08:45:15.055Z,74.48
2019-02-06T08:47:44.331Z,74.21
2019-02-06T08:50:20.429Z,74.10
2019-02-06T08:52:48.889Z,74.14
2019-02-06T08:55:22.261Z,74.29
2019-02-06T08:57:50.816Z,74.19
2019-02-06T09:00:24.461Z,74.05
2019-02-06T09:02:52.655Z,74.08
2019-02-06T09:05:20.840Z,74.04
2019-02-06T09:07:49.318Z,73.87
2019-02-06T09:10:23.485Z,74.01
2019-02-06T09:12:51.771Z,74.17
2019-02-06T09:15:19.953Z,73.59
2019-02-06T09:17:48.135Z,73.17
2019-02-06T09:20:19.018Z,73.40
2019-02-06T09:22:47.197Z,73.37
2019-02-06T09:25:21.075Z,73.28
2019-02-06T09:27:49.253Z,72.82
2019-02-06T09:30:19.476Z,72.87
2019-02-06T09:32:47.657Z,72.94
2019-02-06T09:35:16.189Z,72.17
2019-02-06T09:37:44.582Z,72.19
2019-02-06T09:40:18.056Z,72.33
2019-02-06T09:42:46.228Z,72.12
2019-02-06T09:45:14.941Z,71.88
2019-02-06T09:47:43.124Z,72.59
2019-02-06T09:50:29.146Z,72.60
2019-02-06T09:52:57.348Z,72.43
2019-02-06T09:55:25.538Z,72.33
2019-02-06T09:57:53.725Z,72.23
2019-02-06T10:00:27.669Z,72.30
2019-02-06T10:02:55.860Z,71.94
2019-02-06T10:05:24.319Z,72.44
2019-02-06T10:07:52.502Z,72.31
2019-02-06T10:10:22.428Z,72.25
2019-02-06T10:12:50.619Z,72.07
2019-02-06T10:15:21.041Z,71.95
2019-02-06T10:17:49.294Z,71.97
2019-02-06T10:20:20.116Z,71.76
2019-02-06T10:22:48.285Z,72.03
2019-02-06T10:25:16.465Z,71.83
2019-02-06T10:27:44.649Z,71.25
2019-02-06T10:30:18.913Z,71.76
2019-02-06T10:32:47.100Z,71.52
2019-02-06T10:35:15.659Z,71.75
2019-02-06T10:37:43.881Z,71.53
2019-02-06T10:40:12.279Z,71.37
2019-02-06T10:42:40.462Z,71.46
2019-02-06T10:45:16.864Z,71.42
2019-02-06T10:47:45.063Z,71.53
2019-02-06T10:50:17.025Z,71.58
2019-02-06T10:52:48.126Z,71.23
2019-02-06T10:55:15.117Z,71.14
2019-02-06T10:57:43.381Z,71.22
2019-02-06T11:00:17.578Z,71.16
2019-02-06T11:02:45.881Z,71.32
2019-02-06T11:05:14.664Z,70.74
2019-02-06T11:07:42.842Z,70.92
2019-02-06T11:10:14.069Z,71.22
2019-02-06T11:12:42.267Z,71.04
2019-02-06T11:15:11.677Z,70.38
2019-02-06T11:17:39.873Z,70.95
2019-02-06T11:20:17.504Z,71.16
2019-02-06T11:22:45.687Z,71.24
2019-02-06T11:25:15.404Z,71.01
2019-02-06T11:27:43.609Z,71.22
2019-02-06T11:30:14.797Z,71.07
2019-02-06T11:32:42.986Z,70.91
2019-02-06T11:35:11.252Z,70.81
2019-02-06T11:37:39.480Z,70.75
2019-02-06T11:40:15.386Z,70.63
2019-02-06T11:42:43.270Z,70.85
2019-02-06T11:45:16.969Z,70.71
2019-02-06T11:47:45.804Z,70.98
2019-02-06T11:50:17.365Z,70.65
2019-02-06T11:52:45.892Z,71.09
2019-02-06T11:55:16.830Z,70.56
2019-02-06T11:57:45.020Z,70.75
2019-02-06T12:00:17.778Z,69.95
2019-02-06T12:02:46.233Z,70.69
2019-02-06T12:05:14.476Z,71.08
2019-02-06T12:07:42.670Z,71.34
2019-02-06T12:10:16.574Z,70.92
2019-02-06T12:12:44.754Z,71.05
2019-02-06T12:15:19.188Z,70.78
2019-02-06T12:17:47.376Z,70.63
2019-02-06T12:20:21.564Z,70.81
2019-02-06T12:22:49.797Z,70.56
2019-02-06T12:25:18.520Z,70.19
2019-02-06T12:27:48.437Z,70.59
2019-02-06T12:30:22.231Z,70.01
2019-02-06T12:32:52.326Z,70.84
2019-02-06T12:35:20.393Z,70.38
2019-02-06T12:37:48.583Z,70.56
2019-02-06T12:40:21.673Z,69.85
2019-02-06T12:42:46.778Z,70.14
2019-02-06T12:45:17.325Z,70.53
2019-02-06T12:47:45.507Z,70.69
2019-02-06T12:50:23.279Z,70.90
2019-02-06T12:52:51.471Z,70.81
2019-02-06T12:55:22.571Z,70.60
2019-02-06T12:57:50.746Z,70.80
2019-02-06T13:00:24.561Z,70.95
2019-02-06T13:02:56.349Z,71.00
2019-02-06T13:05:22.975Z,70.86
2019-02-06T13:07:51.162Z,70.92
2019-02-06T13:10:33.234Z,70.65
2019-02-06T13:12:53.568Z,70.45
2019-02-06T13:15:21.761Z,70.36
2019-02-06T13:17:50.362Z,70.39
2019-02-06T13:20:21.288Z,70.37
2019-02-06T13:22:49.426Z,70.77
2019-02-06T13:25:17.612Z,70.95
2019-02-06T13:27:45.795Z,70.47
2019-02-06T13:30:17.238Z,71.01
2019-02-06T13:32:45.809Z,71.44
2019-02-06T13:35:18.036Z,70.73
2019-02-06T13:37:46.226Z,70.77
2019-02-06T13:40:17.511Z,71.20
2019-02-06T13:42:45.693Z,71.06
2019-02-06T13:45:16.975Z,71.39
2019-02-06T13:47:45.532Z,71.09
2019-02-06T13:50:22.095Z,70.82
2019-02-06T13:52:45.781Z,70.84
2019-02-06T13:55:14.802Z,69.75
2019-02-06T13:57:42.984Z,70.69
2019-02-06T14:00:22.522Z,70.77
2019-02-06T14:02:50.898Z,71.10
2019-02-06T14:05:24.387Z,71.02
2019-02-06T14:07:53.711Z,70.99
2019-02-06T14:10:24.199Z,70.88
2019-02-06T14:12:52.470Z,70.31
2019-02-06T14:15:23.430Z,70.91
2019-02-06T14:17:51.813Z,71.23
2019-02-06T14:20:22.216Z,71.20
2019-02-06T14:22:56.655Z,70.81
2019-02-06T14:25:33.784Z,71.23
2019-02-06T14:28:24.979Z,71.53
2019-02-06T14:31:22.042Z,71.52
2019-02-06T14:33:56.182Z,71.51
2019-02-06T14:36:56.310Z,71.28
2019-02-06T14:39:45.046Z,71.74
2019-02-06T14:42:34.185Z,72.08
2019-02-06T14:45:20.595Z,72.51
2019-02-06T14:47:57.630Z,71.47
2019-02-06T14:50:43.989Z,71.40
2019-02-06T14:53:21.143Z,71.02
2019-02-06T14:56:15.439Z,71.42
2019-02-06T14:58:52.671Z,71.96
2019-02-06T15:01:32.621Z,72.13
2019-02-06T15:04:15.803Z,71.72
2019-02-06T15:06:49.291Z,72.21
2019-02-06T15:09:32.056Z,72.00
2019-02-06T15:12:09.313Z,72.11
2019-02-06T15:14:56.042Z,72.02
2019-02-06T15:17:39.337Z,72.07
2019-02-06T15:20:19.412Z,71.96
2019-02-06T15:23:08.149Z,72.22
2019-02-06T15:25:57.677Z,72.23
2019-02-06T15:28:43.920Z,71.90
2019-02-06T15:31:30.395Z,72.39
2019-02-06T15:34:07.444Z,72.81
2019-02-06T15:36:50.663Z,72.72
2019-02-06T15:39:24.933Z,73.02
2019-02-06T15:41:56.419Z,73.32
2019-02-06T15:44:40.020Z,73.06
2019-02-06T15:47:14.124Z,73.20
2019-02-06T15:49:46.741Z,73.02
2019-02-06T15:52:24.117Z,73.08
2019-02-06T15:55:12.118Z,73.04
2019-02-06T15:57:46.249Z,73.33
2019-02-06T16:00:26.677Z,73.41
2019-02-06T16:03:00.690Z,73.41
2019-02-06T16:05:36.449Z,73.53
2019-02-06T16:08:13.708Z,73.51
2019-02-06T16:11:04.369Z,73.64
2019-02-06T16:13:38.772Z,73.81
2019-02-06T16:16:26.825Z,73.48
2019-02-06T16:19:13.131Z,73.66
2019-02-06T16:21:53.039Z,73.78
2019-02-06T16:24:32.736Z,73.84
2019-02-06T16:27:24.777Z,73.77
2019-02-06T16:30:14.262Z,73.66
2019-02-06T16:32:51.289Z,73.99
2019-02-06T16:35:22.816Z,74.02
2019-02-06T16:38:18.345Z,74.04
2019-02-06T16:40:52.326Z,74.01
2019-02-06T16:43:27.090Z,74.11
2019-02-06T16:46:19.891Z,74.12
2019-02-06T16:48:56.888Z,74.13
2019-02-06T16:51:37.000Z,74.13
2019-02-06T16:54:36.964Z,74.10
2019-02-06T16:57:14.103Z,74.24
2019-02-06T17:00:03.801Z,74.48
2019-02-06T17:02:56.604Z,74.31
2019-02-06T17:05:46.035Z,74.38
2019-02-06T17:08:23.240Z,74.47
2019-02-06T17:11:06.156Z,74.48
2019-02-06T17:13:40.489Z,74.48
2019-02-06T17:16:14.933Z,74.47
2019-02-06T17:18:52.152Z,74.39
2019-02-06T17:21:29.003Z,74.65
2019-02-06T17:24:12.598Z,74.57
2019-02-06T17:26:49.799Z,74.60
2019-02-06T17:29:36.317Z,74.74
2019-02-06T17:32:10.168Z,74.76
2019-02-06T17:34:47.381Z,74.74
2019-02-06T17:37:33.790Z,74.82
2019-02-06T17:40:32.141Z,74.88
2019-02-06T17:43:30.695Z,74.88
2019-02-06T17:46:21.366Z,74.84
2019-02-06T17:49:10.537Z,74.95
2019-02-06T17:51:41.973Z,74.89
2019-02-06T17:54:19.304Z,74.86
2019-02-06T17:56:47.526Z,74.86
2019-02-06T17:59:15.716Z,74.80
2019-02-06T18:01:43.903Z,74.62
2019-02-06T18:04:12.113Z,74.66
2019-02-06T18:06:41.269Z,74.68
2019-02-06T18:09:11.198Z,74.85
2019-02-06T18:11:39.383Z,75.04
2019-02-06T18:14:07.583Z,75.21
2019-02-06T18:16:35.761Z,75.31
2019-02-06T18:19:04.044Z,75.17
2019-02-06T18:21:32.226Z,75.16
2019-02-06T18:24:00.419Z,75.39
2019-02-06T18:26:29.156Z,75.58
2019-02-06T18:28:57.345Z,75.59
2019-02-06T18:31:25.525Z,75.39
2019-02-06T18:33:53.712Z,75.36
2019-02-06T18:36:21.902Z,75.22
2019-02-06T18:38:52.051Z,75.27
2019-02-06T18:41:20.242Z,75.40
2019-02-06T18:43:48.438Z,75.37
2019-02-06T18:46:16.906Z,75.35
2019-02-06T18:48:45.098Z,75.48
2019-02-06T18:51:15.265Z,75.64
2019-02-06T18:53:43.448Z,75.74
2019-02-06T18:56:14.715Z,75.67
2019-02-06T18:58:43.901Z,75.70
2019-02-06T19:01:12.097Z,75.75
2019-02-06T19:03:42.742Z,75.62
2019-02-06T19:06:11.390Z,75.57
2019-02-06T19:08:40.090Z,75.58
2019-02-06T19:11:08.468Z,75.54
2019-02-06T19:13:36.639Z,75.29
2019-02-06T19:16:04.837Z,75.24
2019-02-06T19:18:33.014Z,75.30
2019-02-06T19:21:01.201Z,75.22
2019-02-06T19:23:29.388Z,75.03
2019-02-06T19:25:57.853Z,74.90
2019-02-06T19:28:26.067Z,74.94
2019-02-06T19:30:55.595Z,74.83
2019-02-06T19:33:23.892Z,74.63
2019-02-06T19:35:52.078Z,74.42
2019-02-06T19:38:20.257Z,74.27
2019-02-06T19:40:48.440Z,73.99
2019-02-06T19:43:16.820Z,73.96
2019-02-06T19:45:44.996Z,74.15
2019-02-06T19:48:16.326Z,74.10
2019-02-06T19:50:44.627Z,74.06
2019-02-06T19:53:12.806Z,74.12
2019-02-06T19:55:40.990Z,73.88
2019-02-06T19:58:10.208Z,74.14
2019-02-06T20:00:38.403Z,74.42
2019-02-06T20:03:08.181Z,74.48
2019-02-06T20:05:36.553Z,74.45
2019-02-06T20:08:05.475Z,74.51
2019-02-06T20:10:45.725Z,74.43
2019-02-06T20:13:14.720Z,74.67
2019-02-06T20:15:42.985Z,74.77
2019-02-06T20:18:14.403Z,74.84
2019-02-06T20:20:42.677Z,74.80
2019-02-06T20:23:10.864Z,74.54
2019-02-06T20:25:39.041Z,74.26
2019-02-06T20:28:07.292Z,74.33
2019-02-06T20:30:35.734Z,74.44
2019-02-06T20:33:03.924Z,74.48
2019-02-06T20:35:32.183Z,74.57
2019-02-06T20:38:00.367Z,74.73
2019-02-06T20:40:33.718Z,74.90
2019-02-06T20:43:01.903Z,74.79
2019-02-06T20:45:30.083Z,74.69
2019-02-06T20:47:59.191Z,74.82
2019-02-06T20:50:30.763Z,74.92
2019-02-06T20:52:59.322Z,75.06
2019-02-06T20:55:27.501Z,75.21
2019-02-06T20:57:55.693Z,75.34
2019-02-06T21:00:33.130Z,75.28
2019-02-06T21:03:01.384Z,75.35
2019-02-06T21:05:29.565Z,75.25
2019-02-06T21:07:58.133Z,75.31
2019-02-06T21:10:31.583Z,75.41
2019-02-06T21:12:59.938Z,75.42
2019-02-06T21:15:28.160Z,75.39
2019-02-06T21:17:56.360Z,75.40
2019-02-06T21:20:25.075Z,75.26
2019-02-06T21:22:53.263Z,75.16
2019-02-06T21:25:23.065Z,75.42
2019-02-06T21:27:51.534Z,75.54
2019-02-06T21:30:28.646Z,75.61
2019-02-06T21:32:56.831Z,75.43
2019-02-06T21:35:25.023Z,75.60
2019-02-06T21:37:53.231Z,75.48
2019-02-06T21:40:32.803Z,75.39
2019-02-06T21:43:01.077Z,75.36
2019-02-06T21:45:29.343Z,75.41
2019-02-06T21:47:57.532Z,75.56
2019-02-06T21:50:25.786Z,75.51
2019-02-06T21:52:55.444Z,75.58
2019-02-06T21:55:25.042Z,75.63
2019-02-06T21:57:53.229Z,75.70
2019-02-06T22:00:26.849Z,75.76
2019-02-06T22:02:55.031Z,75.75
2019-02-06T22:05:29.306Z,75.63
2019-02-06T22:08:06.418Z,75.66
2019-02-06T22:10:34.610Z,75.62
2019-02-06T22:13:02.809Z,75.60
2019-02-06T22:15:31.925Z,75.60
2019-02-06T22:18:00.170Z,75.58
2019-02-06T22:20:28.629Z,75.58
2019-02-06T22:22:57.734Z,75.51
2019-02-06T22:25:25.947Z,75.54
2019-02-06T22:27:54.143Z,75.54
2019-02-06T22:30:29.600Z,75.59
2019-02-06T22:32:57.797Z,75.66
2019-02-06T22:35:26.174Z,75.69
2019-02-06T22:37:54.363Z,75.73
2019-02-06T22:40:27.069Z,75.79
2019-02-06T22:42:55.260Z,75.86
2019-02-06T22:45:29.494Z,75.83
2019-02-06T22:47:57.677Z,75.82
2019-02-06T22:50:27.759Z,75.78
2019-02-06T22:52:55.897Z,75.77
2019-02-06T22:55:24.087Z,75.76
2019-02-06T22:57:52.274Z,75.89
2019-02-06T23:00:47.952Z,75.90
2019-02-06T23:03:19.563Z,76.02
2019-02-06T23:05:47.854Z,76.01
2019-02-06T23:08:16.019Z,75.97
2019-02-06T23:10:44.213Z,76.00
2019-02-06T23:13:12.394Z,75.96
2019-02-06T23:15:40.586Z,75.91
2019-02-06T23:18:08.766Z,75.99
2019-02-06T23:20:37.056Z,75.85
2019-02-06T23:23:05.254Z,75.83
2019-02-06T23:25:33.441Z,75.69
2019-02-06T23:28:01.627Z,75.67
2019-02-06T23:30:30.117Z,75.62
2019-02-06T23:32:58.299Z,75.55
2019-02-06T23:35:26.478Z,75.55
2019-02-06T23:37:54.681Z,75.62
2019-02-06T23:40:22.872Z,75.49
2019-02-06T23:42:51.052Z,75.43
2019-02-06T23:45:19.257Z,75.50
2019-02-06T23:47:47.438Z,75.59
2019-02-06T23:50:17.255Z,75.44
2019-02-06T23:52:45.443Z,75.48
2019-02-06T23:55:13.624Z,75.40
2019-02-06T23:57:41.804Z,75.23
